sensor_id;sensor_type;location;lat;lon;timestamp;P1;durP1;ratioP1;P2;durP2;ratioP2
43523;SDS011;29120;52.006;6.020;2022-09-09T00:01:50;0.68;;;0.20;;
43523;SDS011;29120;52.006;6.020;2022-09-09T00:09:50;2.85;;;0.30;;
43523;SDS011;29120;52.006;6.020;2022-09-09T00:12:59;1.23;;;0.30;;
43523;SDS011;29120;52.006;6.020;2022-09-09T00:15:28;1.23;;;0.20;;
43523;SDS011;29120;52.006;6.020;2022-09-09T00:18:08;1.00;;;0.30;;
43523;SDS011;29120;52.006;6.020;2022-09-09T00:23:32;0.60;;;0.20;;
43523;SDS011;29120;52.006;6.020;2022-09-09T00:26:10;0.70;;;0.30;;
43523;SDS011;29120;52.006;6.020;2022-09-09T00:28:47;0.82;;;0.38;;
43523;SDS011;29120;52.006;6.020;2022-09-09T00:31:20;1.77;;;0.50;;
43523;SDS011;29120;52.006;6.020;2022-09-09T00:33:50;1.30;;;0.40;;
43523;SDS011;29120;52.006;6.020;2022-09-09T00:36:18;1.10;;;0.50;;
43523;SDS011;29120;52.006;6.020;2022-09-09T00:38:59;2.08;;;0.50;;
43523;SDS011;29120;52.006;6.020;2022-09-09T00:47:09;1.70;;;0.80;;
43523;SDS011;29120;52.006;6.020;2022-09-09T00:49:49;1.00;;;0.50;;
43523;SDS011;29120;52.006;6.020;2022-09-09T00:55:27;2.00;;;0.80;;
43523;SDS011;29120;52.006;6.020;2022-09-09T00:58:06;1.67;;;0.80;;
43523;SDS011;29120;52.006;6.020;2022-09-09T01:08:48;1.10;;;0.70;;
43523;SDS011;29120;52.006;6.020;2022-09-09T01:17:00;1.88;;;0.73;;
43523;SDS011;29120;52.006;6.020;2022-09-09T01:27:43;2.65;;;0.50;;
43523;SDS011;29120;52.006;6.020;2022-09-09T01:30:13;1.02;;;0.70;;
43523;SDS011;29120;52.006;6.020;2022-09-09T01:32:46;1.15;;;0.50;;
43523;SDS011;29120;52.006;6.020;2022-09-09T01:38:04;1.70;;;0.50;;
43523;SDS011;29120;52.006;6.020;2022-09-09T01:40:30;1.55;;;0.50;;
43523;SDS011;29120;52.006;6.020;2022-09-09T01:42:56;0.60;;;0.38;;
43523;SDS011;29120;52.006;6.020;2022-09-09T01:45:22;0.80;;;0.40;;
43523;SDS011;29120;52.006;6.020;2022-09-09T01:47:49;1.70;;;0.40;;
43523;SDS011;29120;52.006;6.020;2022-09-09T01:50:16;3.67;;;0.40;;
43523;SDS011;29120;52.006;6.020;2022-09-09T01:52:44;0.57;;;0.30;;
43523;SDS011;29120;52.006;6.020;2022-09-09T01:55:12;0.65;;;0.30;;
43523;SDS011;29120;52.006;6.020;2022-09-09T02:00:15;1.23;;;0.32;;
43523;SDS011;29120;52.006;6.020;2022-09-09T02:08:10;1.10;;;0.50;;
43523;SDS011;29120;52.006;6.020;2022-09-09T02:10:45;0.90;;;0.40;;
43523;SDS011;29120;52.006;6.020;2022-09-09T02:13:17;1.38;;;0.40;;
43523;SDS011;29120;52.006;6.020;2022-09-09T02:18:17;1.88;;;0.50;;
43523;SDS011;29120;52.006;6.020;2022-09-09T02:20:49;1.70;;;0.40;;
43523;SDS011;29120;52.006;6.020;2022-09-09T02:23:16;2.25;;;0.50;;
43523;SDS011;29120;52.006;6.020;2022-09-09T02:25:42;0.90;;;0.40;;
43523;SDS011;29120;52.006;6.020;2022-09-09T02:28:09;1.20;;;0.47;;
43523;SDS011;29120;52.006;6.020;2022-09-09T02:30:37;1.83;;;0.40;;
43523;SDS011;29120;52.006;6.020;2022-09-09T02:33:06;2.55;;;0.70;;
43523;SDS011;29120;52.006;6.020;2022-09-09T02:35:35;1.17;;;0.40;;
43523;SDS011;29120;52.006;6.020;2022-09-09T02:38:03;0.80;;;0.50;;
43523;SDS011;29120;52.006;6.020;2022-09-09T02:40:31;3.45;;;0.40;;
43523;SDS011;29120;52.006;6.020;2022-09-09T02:42:57;2.30;;;0.50;;
43523;SDS011;29120;52.006;6.020;2022-09-09T02:45:25;0.82;;;0.43;;
43523;SDS011;29120;52.006;6.020;2022-09-09T02:51:14;3.00;;;1.45;;
43523;SDS011;29120;52.006;6.020;2022-09-09T02:56:24;1.88;;;1.10;;
43523;SDS011;29120;52.006;6.020;2022-09-09T02:58:54;3.40;;;1.70;;
43523;SDS011;29120;52.006;6.020;2022-09-09T03:01:20;4.17;;;1.87;;
43523;SDS011;29120;52.006;6.020;2022-09-09T03:03:46;2.22;;;1.20;;
43523;SDS011;29120;52.006;6.020;2022-09-09T03:06:11;4.28;;;1.38;;
43523;SDS011;29120;52.006;6.020;2022-09-09T03:08:37;4.30;;;1.08;;
43523;SDS011;29120;52.006;6.020;2022-09-09T03:11:03;4.22;;;0.90;;
43523;SDS011;29120;52.006;6.020;2022-09-09T03:13:29;2.67;;;0.90;;
43523;SDS011;29120;52.006;6.020;2022-09-09T03:15:54;2.43;;;0.80;;
43523;SDS011;29120;52.006;6.020;2022-09-09T03:18:20;1.15;;;0.63;;
43523;SDS011;29120;52.006;6.020;2022-09-09T03:20:46;3.23;;;0.70;;
43523;SDS011;29120;52.006;6.020;2022-09-09T03:23:15;2.10;;;0.60;;
43523;SDS011;29120;52.006;6.020;2022-09-09T03:25:48;1.58;;;0.60;;
43523;SDS011;29120;52.006;6.020;2022-09-09T03:28:14;1.33;;;0.75;;
43523;SDS011;29120;52.006;6.020;2022-09-09T03:30:40;2.55;;;0.77;;
43523;SDS011;29120;52.006;6.020;2022-09-09T03:33:06;1.77;;;0.70;;
43523;SDS011;29120;52.006;6.020;2022-09-09T03:35:31;1.40;;;0.80;;
43523;SDS011;29120;52.006;6.020;2022-09-09T03:37:57;2.80;;;0.98;;
43523;SDS011;29120;52.006;6.020;2022-09-09T03:40:22;1.47;;;0.80;;
43523;SDS011;29120;52.006;6.020;2022-09-09T03:42:48;2.33;;;0.70;;
43523;SDS011;29120;52.006;6.020;2022-09-09T03:45:14;2.55;;;1.05;;
43523;SDS011;29120;52.006;6.020;2022-09-09T03:47:39;1.65;;;0.80;;
43523;SDS011;29120;52.006;6.020;2022-09-09T03:50:06;1.20;;;0.70;;
43523;SDS011;29120;52.006;6.020;2022-09-09T03:52:35;2.27;;;1.03;;
43523;SDS011;29120;52.006;6.020;2022-09-09T03:55:01;3.17;;;1.40;;
43523;SDS011;29120;52.006;6.020;2022-09-09T03:57:27;2.25;;;1.20;;
43523;SDS011;29120;52.006;6.020;2022-09-09T03:59:54;4.78;;;1.55;;
43523;SDS011;29120;52.006;6.020;2022-09-09T04:02:20;4.32;;;1.77;;
43523;SDS011;29120;52.006;6.020;2022-09-09T04:04:46;2.30;;;1.60;;
43523;SDS011;29120;52.006;6.020;2022-09-09T04:07:12;2.75;;;1.60;;
43523;SDS011;29120;52.006;6.020;2022-09-09T04:09:38;3.90;;;1.63;;
43523;SDS011;29120;52.006;6.020;2022-09-09T04:12:03;3.87;;;1.47;;
43523;SDS011;29120;52.006;6.020;2022-09-09T04:14:29;4.97;;;2.40;;
43523;SDS011;29120;52.006;6.020;2022-09-09T04:16:55;5.22;;;2.25;;
43523;SDS011;29120;52.006;6.020;2022-09-09T04:19:22;2.67;;;1.52;;
43523;SDS011;29120;52.006;6.020;2022-09-09T04:21:47;4.63;;;2.15;;
43523;SDS011;29120;52.006;6.020;2022-09-09T04:24:15;3.67;;;2.00;;
43523;SDS011;29120;52.006;6.020;2022-09-09T04:26:41;5.25;;;2.45;;
43523;SDS011;29120;52.006;6.020;2022-09-09T04:29:07;5.32;;;1.85;;
43523;SDS011;29120;52.006;6.020;2022-09-09T04:31:33;7.37;;;2.77;;
43523;SDS011;29120;52.006;6.020;2022-09-09T04:33:59;5.22;;;2.50;;
43523;SDS011;29120;52.006;6.020;2022-09-09T04:36:29;4.63;;;2.03;;
43523;SDS011;29120;52.006;6.020;2022-09-09T04:38:56;4.90;;;1.77;;
43523;SDS011;29120;52.006;6.020;2022-09-09T04:41:22;6.60;;;1.92;;
43523;SDS011;29120;52.006;6.020;2022-09-09T04:43:48;3.55;;;1.75;;
43523;SDS011;29120;52.006;6.020;2022-09-09T04:46:14;2.97;;;1.90;;
43523;SDS011;29120;52.006;6.020;2022-09-09T04:48:42;5.97;;;1.88;;
43523;SDS011;29120;52.006;6.020;2022-09-09T04:51:08;2.72;;;1.13;;
43523;SDS011;29120;52.006;6.020;2022-09-09T04:53:37;6.10;;;1.63;;
43523;SDS011;29120;52.006;6.020;2022-09-09T04:56:06;3.97;;;1.20;;
43523;SDS011;29120;52.006;6.020;2022-09-09T04:58:35;2.83;;;1.40;;
43523;SDS011;29120;52.006;6.020;2022-09-09T05:01:05;3.55;;;1.50;;
43523;SDS011;29120;52.006;6.020;2022-09-09T05:03:32;2.50;;;0.70;;
43523;SDS011;29120;52.006;6.020;2022-09-09T05:06:02;2.38;;;1.02;;
43523;SDS011;29120;52.006;6.020;2022-09-09T05:08:33;3.30;;;1.35;;
43523;SDS011;29120;52.006;6.020;2022-09-09T05:10:59;3.10;;;1.70;;
43523;SDS011;29120;52.006;6.020;2022-09-09T05:13:25;7.93;;;1.48;;
43523;SDS011;29120;52.006;6.020;2022-09-09T05:15:52;3.28;;;1.30;;
43523;SDS011;29120;52.006;6.020;2022-09-09T05:18:18;5.53;;;1.40;;
43523;SDS011;29120;52.006;6.020;2022-09-09T05:20:44;2.30;;;1.23;;
43523;SDS011;29120;52.006;6.020;2022-09-09T05:23:09;3.88;;;1.48;;
43523;SDS011;29120;52.006;6.020;2022-09-09T05:25:38;3.00;;;1.10;;
43523;SDS011;29120;52.006;6.020;2022-09-09T05:28:03;3.63;;;0.93;;
43523;SDS011;29120;52.006;6.020;2022-09-09T05:30:30;4.82;;;1.13;;
43523;SDS011;29120;52.006;6.020;2022-09-09T05:32:56;6.63;;;1.13;;
43523;SDS011;29120;52.006;6.020;2022-09-09T05:35:21;2.90;;;1.05;;
43523;SDS011;29120;52.006;6.020;2022-09-09T05:37:48;5.82;;;0.88;;
43523;SDS011;29120;52.006;6.020;2022-09-09T05:40:13;1.60;;;0.77;;
43523;SDS011;29120;52.006;6.020;2022-09-09T05:42:39;2.80;;;1.05;;
43523;SDS011;29120;52.006;6.020;2022-09-09T05:45:06;4.68;;;1.00;;
43523;SDS011;29120;52.006;6.020;2022-09-09T05:47:33;4.25;;;0.82;;
43523;SDS011;29120;52.006;6.020;2022-09-09T05:49:58;3.00;;;0.90;;
43523;SDS011;29120;52.006;6.020;2022-09-09T05:52:24;4.00;;;0.85;;
43523;SDS011;29120;52.006;6.020;2022-09-09T05:54:51;2.58;;;0.88;;
43523;SDS011;29120;52.006;6.020;2022-09-09T05:57:17;4.35;;;0.90;;
43523;SDS011;29120;52.006;6.020;2022-09-09T05:59:44;5.88;;;1.20;;
43523;SDS011;29120;52.006;6.020;2022-09-09T06:02:09;5.63;;;0.90;;
43523;SDS011;29120;52.006;6.020;2022-09-09T06:04:35;1.45;;;0.52;;
43523;SDS011;29120;52.006;6.020;2022-09-09T06:07:00;3.58;;;0.70;;
43523;SDS011;29120;52.006;6.020;2022-09-09T06:09:26;5.63;;;1.10;;
43523;SDS011;29120;52.006;6.020;2022-09-09T06:11:52;5.10;;;0.88;;
43523;SDS011;29120;52.006;6.020;2022-09-09T06:14:18;5.03;;;0.80;;
43523;SDS011;29120;52.006;6.020;2022-09-09T06:16:44;9.48;;;0.90;;
43523;SDS011;29120;52.006;6.020;2022-09-09T06:19:10;5.88;;;0.50;;
43523;SDS011;29120;52.006;6.020;2022-09-09T06:21:37;3.55;;;0.60;;
43523;SDS011;29120;52.006;6.020;2022-09-09T06:24:03;5.68;;;1.00;;
43523;SDS011;29120;52.006;6.020;2022-09-09T06:26:31;2.95;;;0.80;;
43523;SDS011;29120;52.006;6.020;2022-09-09T06:29:01;4.90;;;1.00;;
43523;SDS011;29120;52.006;6.020;2022-09-09T06:31:32;3.78;;;1.00;;
43523;SDS011;29120;52.006;6.020;2022-09-09T06:33:59;5.80;;;1.02;;
43523;SDS011;29120;52.006;6.020;2022-09-09T06:36:26;6.03;;;1.33;;
43523;SDS011;29120;52.006;6.020;2022-09-09T06:38:53;7.63;;;1.05;;
43523;SDS011;29120;52.006;6.020;2022-09-09T06:41:20;3.58;;;0.60;;
43523;SDS011;29120;52.006;6.020;2022-09-09T06:43:47;4.72;;;0.82;;
43523;SDS011;29120;52.006;6.020;2022-09-09T06:46:14;5.95;;;0.77;;
43523;SDS011;29120;52.006;6.020;2022-09-09T06:48:41;4.25;;;0.90;;
43523;SDS011;29120;52.006;6.020;2022-09-09T06:51:13;3.28;;;0.60;;
43523;SDS011;29120;52.006;6.020;2022-09-09T06:53:47;3.65;;;0.52;;
43523;SDS011;29120;52.006;6.020;2022-09-09T06:56:22;2.97;;;0.80;;
43523;SDS011;29120;52.006;6.020;2022-09-09T06:58:53;3.80;;;0.70;;
43523;SDS011;29120;52.006;6.020;2022-09-09T07:01:21;3.85;;;0.90;;
43523;SDS011;29120;52.006;6.020;2022-09-09T07:03:49;5.72;;;0.60;;
43523;SDS011;29120;52.006;6.020;2022-09-09T07:06:20;6.25;;;0.80;;
43523;SDS011;29120;52.006;6.020;2022-09-09T07:08:49;11.00;;;0.95;;
43523;SDS011;29120;52.006;6.020;2022-09-09T07:11:19;9.63;;;0.68;;
43523;SDS011;29120;52.006;6.020;2022-09-09T07:13:46;9.18;;;1.08;;
43523;SDS011;29120;52.006;6.020;2022-09-09T07:16:13;3.35;;;0.50;;
43523;SDS011;29120;52.006;6.020;2022-09-09T07:18:44;7.70;;;0.82;;
43523;SDS011;29120;52.006;6.020;2022-09-09T07:21:10;6.20;;;0.75;;
43523;SDS011;29120;52.006;6.020;2022-09-09T07:23:37;6.32;;;0.70;;
43523;SDS011;29120;52.006;6.020;2022-09-09T07:26:07;7.03;;;1.10;;
43523;SDS011;29120;52.006;6.020;2022-09-09T07:28:38;5.53;;;0.73;;
43523;SDS011;29120;52.006;6.020;2022-09-09T07:31:05;7.60;;;0.90;;
43523;SDS011;29120;52.006;6.020;2022-09-09T07:33:33;3.42;;;0.65;;
43523;SDS011;29120;52.006;6.020;2022-09-09T07:36:06;6.03;;;1.02;;
43523;SDS011;29120;52.006;6.020;2022-09-09T07:38:47;7.50;;;0.70;;
43523;SDS011;29120;52.006;6.020;2022-09-09T07:41:35;11.55;;;0.85;;
43523;SDS011;29120;52.006;6.020;2022-09-09T07:44:05;6.55;;;0.80;;
43523;SDS011;29120;52.006;6.020;2022-09-09T07:46:33;9.18;;;0.90;;
43523;SDS011;29120;52.006;6.020;2022-09-09T07:48:59;6.05;;;0.70;;
43523;SDS011;29120;52.006;6.020;2022-09-09T07:51:26;4.82;;;0.82;;
43523;SDS011;29120;52.006;6.020;2022-09-09T07:53:58;6.90;;;0.80;;
43523;SDS011;29120;52.006;6.020;2022-09-09T07:56:27;6.50;;;0.80;;
43523;SDS011;29120;52.006;6.020;2022-09-09T07:58:53;8.60;;;0.90;;
43523;SDS011;29120;52.006;6.020;2022-09-09T08:01:24;5.82;;;0.70;;
43523;SDS011;29120;52.006;6.020;2022-09-09T08:04:01;5.65;;;0.60;;
43523;SDS011;29120;52.006;6.020;2022-09-09T08:06:30;5.00;;;0.60;;
43523;SDS011;29120;52.006;6.020;2022-09-09T08:08:58;5.80;;;0.95;;
43523;SDS011;29120;52.006;6.020;2022-09-09T08:11:24;4.18;;;0.80;;
43523;SDS011;29120;52.006;6.020;2022-09-09T08:13:51;7.30;;;0.90;;
43523;SDS011;29120;52.006;6.020;2022-09-09T08:16:22;5.50;;;0.55;;
43523;SDS011;29120;52.006;6.020;2022-09-09T08:18:49;3.67;;;0.50;;
43523;SDS011;29120;52.006;6.020;2022-09-09T08:21:20;4.85;;;0.93;;
43523;SDS011;29120;52.006;6.020;2022-09-09T08:23:50;5.78;;;1.05;;
43523;SDS011;29120;52.006;6.020;2022-09-09T08:26:27;10.20;;;0.80;;
43523;SDS011;29120;52.006;6.020;2022-09-09T08:28:56;5.80;;;0.90;;
43523;SDS011;29120;52.006;6.020;2022-09-09T08:31:24;4.65;;;0.68;;
43523;SDS011;29120;52.006;6.020;2022-09-09T08:33:52;8.27;;;1.38;;
43523;SDS011;29120;52.006;6.020;2022-09-09T08:36:20;6.57;;;0.80;;
43523;SDS011;29120;52.006;6.020;2022-09-09T08:38:48;3.00;;;0.47;;
43523;SDS011;29120;52.006;6.020;2022-09-09T08:41:21;8.40;;;0.73;;
43523;SDS011;29120;52.006;6.020;2022-09-09T08:46:59;6.35;;;0.90;;
43523;SDS011;29120;52.006;6.020;2022-09-09T08:49:40;5.65;;;0.70;;
43523;SDS011;29120;52.006;6.020;2022-09-09T08:52:13;5.15;;;0.90;;
43523;SDS011;29120;52.006;6.020;2022-09-09T08:54:43;7.07;;;0.60;;
43523;SDS011;29120;52.006;6.020;2022-09-09T08:57:11;9.32;;;1.02;;
43523;SDS011;29120;52.006;6.020;2022-09-09T09:02:15;4.18;;;0.57;;
43523;SDS011;29120;52.006;6.020;2022-09-09T09:10:19;3.88;;;0.50;;
43523;SDS011;29120;52.006;6.020;2022-09-09T09:12:54;3.35;;;0.50;;
43523;SDS011;29120;52.006;6.020;2022-09-09T09:15:26;7.60;;;0.80;;
43523;SDS011;29120;52.006;6.020;2022-09-09T09:18:01;6.25;;;0.80;;
43523;SDS011;29120;52.006;6.020;2022-09-09T09:20:38;4.30;;;0.60;;
43523;SDS011;29120;52.006;6.020;2022-09-09T09:23:19;3.40;;;0.50;;
43523;SDS011;29120;52.006;6.020;2022-09-09T09:25:47;6.15;;;0.50;;
43523;SDS011;29120;52.006;6.020;2022-09-09T09:28:17;6.53;;;0.88;;
43523;SDS011;29120;52.006;6.020;2022-09-09T09:30:55;4.82;;;0.80;;
43523;SDS011;29120;52.006;6.020;2022-09-09T09:36:13;5.95;;;0.70;;
43523;SDS011;29120;52.006;6.020;2022-09-09T09:38:57;10.13;;;1.13;;
43523;SDS011;29120;52.006;6.020;2022-09-09T09:44:21;6.20;;;0.60;;
43523;SDS011;29120;52.006;6.020;2022-09-09T09:46:52;6.97;;;0.93;;
43523;SDS011;29120;52.006;6.020;2022-09-09T09:49:29;4.45;;;0.43;;
43523;SDS011;29120;52.006;6.020;2022-09-09T09:51:59;3.53;;;0.50;;
43523;SDS011;29120;52.006;6.020;2022-09-09T09:54:30;4.22;;;0.55;;
43523;SDS011;29120;52.006;6.020;2022-09-09T09:57:13;9.10;;;0.65;;
43523;SDS011;29120;52.006;6.020;2022-09-09T09:59:41;6.70;;;0.50;;
43523;SDS011;29120;52.006;6.020;2022-09-09T10:04:38;8.73;;;0.50;;
43523;SDS011;29120;52.006;6.020;2022-09-09T10:09:59;6.18;;;0.50;;
43523;SDS011;29120;52.006;6.020;2022-09-09T10:15:02;4.10;;;0.47;;
43523;SDS011;29120;52.006;6.020;2022-09-09T10:17:53;6.90;;;0.57;;
43523;SDS011;29120;52.006;6.020;2022-09-09T10:23:15;3.53;;;0.47;;
43523;SDS011;29120;52.006;6.020;2022-09-09T10:34:58;7.38;;;0.50;;
43523;SDS011;29120;52.006;6.020;2022-09-09T10:39:59;3.00;;;0.40;;
43523;SDS011;29120;52.006;6.020;2022-09-09T10:42:44;9.68;;;0.60;;
43523;SDS011;29120;52.006;6.020;2022-09-09T10:51:19;6.05;;;0.88;;
43523;SDS011;29120;52.006;6.020;2022-09-09T10:56:37;3.83;;;0.40;;
43523;SDS011;29120;52.006;6.020;2022-09-09T10:59:15;3.47;;;0.40;;
43523;SDS011;29120;52.006;6.020;2022-09-09T11:05:09;3.97;;;0.40;;
43523;SDS011;29120;52.006;6.020;2022-09-09T11:07:42;5.38;;;1.00;;
43523;SDS011;29120;52.006;6.020;2022-09-09T11:10:40;5.68;;;0.60;;
43523;SDS011;29120;52.006;6.020;2022-09-09T11:13:45;5.32;;;0.50;;
43523;SDS011;29120;52.006;6.020;2022-09-09T11:21:59;4.93;;;0.50;;
43523;SDS011;29120;52.006;6.020;2022-09-09T11:24:43;4.97;;;0.40;;
43523;SDS011;29120;52.006;6.020;2022-09-09T11:27:16;7.88;;;0.50;;
43523;SDS011;29120;52.006;6.020;2022-09-09T11:35:24;6.13;;;0.70;;
43523;SDS011;29120;52.006;6.020;2022-09-09T11:40:44;2.85;;;0.40;;
43523;SDS011;29120;52.006;6.020;2022-09-09T11:43:12;5.50;;;0.73;;
43523;SDS011;29120;52.006;6.020;2022-09-09T11:45:50;5.70;;;0.57;;
43523;SDS011;29120;52.006;6.020;2022-09-09T11:48:39;2.80;;;0.30;;
43523;SDS011;29120;52.006;6.020;2022-09-09T11:53:51;3.63;;;0.32;;
43523;SDS011;29120;52.006;6.020;2022-09-09T11:56:24;5.10;;;0.77;;
43523;SDS011;29120;52.006;6.020;2022-09-09T11:58:59;2.13;;;0.40;;
43523;SDS011;29120;52.006;6.020;2022-09-09T12:01:44;5.53;;;0.70;;
43523;SDS011;29120;52.006;6.020;2022-09-09T12:07:02;4.93;;;0.70;;
43523;SDS011;29120;52.006;6.020;2022-09-09T12:09:55;2.45;;;0.40;;
43523;SDS011;29120;52.006;6.020;2022-09-09T12:12:29;7.18;;;0.60;;
43523;SDS011;29120;52.006;6.020;2022-09-09T12:17:45;3.13;;;0.57;;
43523;SDS011;29120;52.006;6.020;2022-09-09T12:33:32;4.40;;;0.50;;
43523;SDS011;29120;52.006;6.020;2022-09-09T12:36:00;5.28;;;0.57;;
43523;SDS011;29120;52.006;6.020;2022-09-09T12:38:31;5.35;;;0.57;;
43523;SDS011;29120;52.006;6.020;2022-09-09T12:41:04;3.30;;;0.40;;
43523;SDS011;29120;52.006;6.020;2022-09-09T12:43:31;3.95;;;0.45;;
43523;SDS011;29120;52.006;6.020;2022-09-09T12:45:58;7.85;;;1.23;;
43523;SDS011;29120;52.006;6.020;2022-09-09T12:48:38;2.70;;;0.60;;
43523;SDS011;29120;52.006;6.020;2022-09-09T12:51:15;2.83;;;0.40;;
43523;SDS011;29120;52.006;6.020;2022-09-09T12:53:44;3.25;;;0.38;;
43523;SDS011;29120;52.006;6.020;2022-09-09T12:56:17;1.92;;;0.30;;
43523;SDS011;29120;52.006;6.020;2022-09-09T12:58:46;2.28;;;0.40;;
43523;SDS011;29120;52.006;6.020;2022-09-09T13:01:20;2.40;;;0.30;;
43523;SDS011;29120;52.006;6.020;2022-09-09T13:03:48;2.72;;;0.30;;
43523;SDS011;29120;52.006;6.020;2022-09-09T13:06:18;4.22;;;0.40;;
43523;SDS011;29120;52.006;6.020;2022-09-09T13:08:47;3.55;;;0.40;;
43523;SDS011;29120;52.006;6.020;2022-09-09T13:11:15;1.90;;;0.30;;
43523;SDS011;29120;52.006;6.020;2022-09-09T13:13:50;1.95;;;0.20;;
43523;SDS011;29120;52.006;6.020;2022-09-09T13:16:30;4.55;;;0.38;;
43523;SDS011;29120;52.006;6.020;2022-09-09T13:18:58;4.47;;;0.35;;
43523;SDS011;29120;52.006;6.020;2022-09-09T13:21:32;1.02;;;0.20;;
43523;SDS011;29120;52.006;6.020;2022-09-09T13:24:03;2.05;;;0.30;;
43523;SDS011;29120;52.006;6.020;2022-09-09T13:26:32;2.25;;;0.30;;
43523;SDS011;29120;52.006;6.020;2022-09-09T13:29:18;4.20;;;0.30;;
43523;SDS011;29120;52.006;6.020;2022-09-09T13:31:44;1.45;;;0.35;;
43523;SDS011;29120;52.006;6.020;2022-09-09T13:34:26;2.65;;;0.45;;
43523;SDS011;29120;52.006;6.020;2022-09-09T13:37:01;3.83;;;0.30;;
43523;SDS011;29120;52.006;6.020;2022-09-09T13:39:30;1.40;;;0.38;;
43523;SDS011;29120;52.006;6.020;2022-09-09T13:41:59;2.85;;;0.40;;
43523;SDS011;29120;52.006;6.020;2022-09-09T13:44:27;2.15;;;0.40;;
43523;SDS011;29120;52.006;6.020;2022-09-09T13:47:06;2.33;;;0.40;;
43523;SDS011;29120;52.006;6.020;2022-09-09T13:49:44;3.75;;;0.50;;
43523;SDS011;29120;52.006;6.020;2022-09-09T13:52:14;2.80;;;0.43;;
43523;SDS011;29120;52.006;6.020;2022-09-09T13:54:42;2.15;;;0.30;;
43523;SDS011;29120;52.006;6.020;2022-09-09T13:57:24;4.80;;;0.50;;
43523;SDS011;29120;52.006;6.020;2022-09-09T13:59:50;3.55;;;0.68;;
43523;SDS011;29120;52.006;6.020;2022-09-09T14:02:19;5.03;;;0.40;;
43523;SDS011;29120;52.006;6.020;2022-09-09T14:04:46;3.13;;;0.40;;
43523;SDS011;29120;52.006;6.020;2022-09-09T14:07:12;3.42;;;0.32;;
43523;SDS011;29120;52.006;6.020;2022-09-09T14:09:40;2.35;;;0.52;;
43523;SDS011;29120;52.006;6.020;2022-09-09T14:12:12;2.50;;;0.35;;
43523;SDS011;29120;52.006;6.020;2022-09-09T14:14:40;1.80;;;0.30;;
43523;SDS011;29120;52.006;6.020;2022-09-09T14:17:07;3.03;;;0.28;;
43523;SDS011;29120;52.006;6.020;2022-09-09T14:19:32;4.30;;;0.40;;
43523;SDS011;29120;52.006;6.020;2022-09-09T14:21:58;3.67;;;0.30;;
43523;SDS011;29120;52.006;6.020;2022-09-09T14:24:24;2.65;;;0.40;;
43523;SDS011;29120;52.006;6.020;2022-09-09T14:26:50;3.10;;;0.30;;
43523;SDS011;29120;52.006;6.020;2022-09-09T14:29:15;3.50;;;0.38;;
43523;SDS011;29120;52.006;6.020;2022-09-09T14:31:41;3.20;;;0.38;;
43523;SDS011;29120;52.006;6.020;2022-09-09T14:34:07;2.15;;;0.40;;
43523;SDS011;29120;52.006;6.020;2022-09-09T14:36:32;3.08;;;0.50;;
43523;SDS011;29120;52.006;6.020;2022-09-09T14:38:58;3.33;;;0.43;;
43523;SDS011;29120;52.006;6.020;2022-09-09T14:41:23;2.42;;;0.30;;
43523;SDS011;29120;52.006;6.020;2022-09-09T14:43:50;2.90;;;0.20;;
43523;SDS011;29120;52.006;6.020;2022-09-09T14:46:17;3.22;;;0.40;;
43523;SDS011;29120;52.006;6.020;2022-09-09T14:48:43;1.83;;;0.30;;
43523;SDS011;29120;52.006;6.020;2022-09-09T14:51:11;3.42;;;0.40;;
43523;SDS011;29120;52.006;6.020;2022-09-09T14:53:38;2.78;;;0.30;;
43523;SDS011;29120;52.006;6.020;2022-09-09T14:56:09;3.38;;;0.30;;
43523;SDS011;29120;52.006;6.020;2022-09-09T14:58:36;2.03;;;0.35;;
43523;SDS011;29120;52.006;6.020;2022-09-09T15:01:06;2.63;;;0.30;;
43523;SDS011;29120;52.006;6.020;2022-09-09T15:03:35;3.40;;;0.40;;
43523;SDS011;29120;52.006;6.020;2022-09-09T15:06:08;4.07;;;0.63;;
43523;SDS011;29120;52.006;6.020;2022-09-09T15:08:36;3.17;;;0.47;;
43523;SDS011;29120;52.006;6.020;2022-09-09T15:11:03;3.42;;;0.40;;
43523;SDS011;29120;52.006;6.020;2022-09-09T15:13:29;2.55;;;0.35;;
43523;SDS011;29120;52.006;6.020;2022-09-09T15:15:55;2.38;;;0.30;;
43523;SDS011;29120;52.006;6.020;2022-09-09T15:18:22;3.55;;;0.40;;
43523;SDS011;29120;52.006;6.020;2022-09-09T15:20:48;1.52;;;0.38;;
43523;SDS011;29120;52.006;6.020;2022-09-09T15:23:14;2.13;;;0.30;;
43523;SDS011;29120;52.006;6.020;2022-09-09T15:25:50;2.17;;;0.30;;
43523;SDS011;29120;52.006;6.020;2022-09-09T15:28:17;2.42;;;0.35;;
43523;SDS011;29120;52.006;6.020;2022-09-09T15:30:42;1.88;;;0.30;;
43523;SDS011;29120;52.006;6.020;2022-09-09T15:33:09;2.10;;;0.30;;
43523;SDS011;29120;52.006;6.020;2022-09-09T15:35:35;4.25;;;0.30;;
43523;SDS011;29120;52.006;6.020;2022-09-09T15:38:01;1.83;;;0.30;;
43523;SDS011;29120;52.006;6.020;2022-09-09T15:40:29;1.35;;;0.30;;
43523;SDS011;29120;52.006;6.020;2022-09-09T15:42:57;2.40;;;0.30;;
43523;SDS011;29120;52.006;6.020;2022-09-09T15:45:23;2.20;;;0.30;;
43523;SDS011;29120;52.006;6.020;2022-09-09T15:47:48;3.92;;;0.40;;
43523;SDS011;29120;52.006;6.020;2022-09-09T15:50:14;4.65;;;0.40;;
43523;SDS011;29120;52.006;6.020;2022-09-09T15:52:40;2.60;;;0.40;;
43523;SDS011;29120;52.006;6.020;2022-09-09T15:55:06;2.67;;;0.38;;
43523;SDS011;29120;52.006;6.020;2022-09-09T15:57:33;2.88;;;0.30;;
43523;SDS011;29120;52.006;6.020;2022-09-09T16:00:00;1.85;;;0.30;;
43523;SDS011;29120;52.006;6.020;2022-09-09T16:02:26;1.98;;;0.30;;
43523;SDS011;29120;52.006;6.020;2022-09-09T16:04:51;1.92;;;0.30;;
43523;SDS011;29120;52.006;6.020;2022-09-09T16:07:17;1.80;;;0.40;;
43523;SDS011;29120;52.006;6.020;2022-09-09T16:09:43;4.55;;;0.40;;
43523;SDS011;29120;52.006;6.020;2022-09-09T16:12:08;2.28;;;0.30;;
43523;SDS011;29120;52.006;6.020;2022-09-09T16:14:38;2.90;;;0.40;;
43523;SDS011;29120;52.006;6.020;2022-09-09T16:17:04;1.42;;;0.20;;
43523;SDS011;29120;52.006;6.020;2022-09-09T16:19:31;3.08;;;0.60;;
43523;SDS011;29120;52.006;6.020;2022-09-09T16:21:57;4.30;;;0.20;;
43523;SDS011;29120;52.006;6.020;2022-09-09T16:24:23;0.82;;;0.10;;
43523;SDS011;29120;52.006;6.020;2022-09-09T16:26:52;1.83;;;0.10;;
43523;SDS011;29120;52.006;6.020;2022-09-09T16:29:19;0.85;;;0.10;;
43523;SDS011;29120;52.006;6.020;2022-09-09T16:31:46;1.70;;;0.10;;
43523;SDS011;29120;52.006;6.020;2022-09-09T16:34:12;0.75;;;0.10;;
43523;SDS011;29120;52.006;6.020;2022-09-09T16:36:39;0.52;;;0.10;;
43523;SDS011;29120;52.006;6.020;2022-09-09T16:39:07;1.33;;;0.25;;
43523;SDS011;29120;52.006;6.020;2022-09-09T16:41:35;1.75;;;0.17;;
43523;SDS011;29120;52.006;6.020;2022-09-09T16:44:03;1.48;;;0.20;;
43523;SDS011;29120;52.006;6.020;2022-09-09T16:46:31;3.35;;;0.25;;
43523;SDS011;29120;52.006;6.020;2022-09-09T16:48:59;1.67;;;0.20;;
43523;SDS011;29120;52.006;6.020;2022-09-09T16:51:27;0.40;;;0.10;;
43523;SDS011;29120;52.006;6.020;2022-09-09T16:53:54;1.27;;;0.25;;
43523;SDS011;29120;52.006;6.020;2022-09-09T16:56:23;1.52;;;0.25;;
43523;SDS011;29120;52.006;6.020;2022-09-09T16:58:54;1.08;;;0.20;;
43523;SDS011;29120;52.006;6.020;2022-09-09T17:01:24;0.68;;;0.20;;
43523;SDS011;29120;52.006;6.020;2022-09-09T17:03:52;1.42;;;0.30;;
43523;SDS011;29120;52.006;6.020;2022-09-09T17:06:18;0.60;;;0.20;;
43523;SDS011;29120;52.006;6.020;2022-09-09T17:08:44;1.25;;;0.20;;
43523;SDS011;29120;52.006;6.020;2022-09-09T17:11:16;0.80;;;0.20;;
43523;SDS011;29120;52.006;6.020;2022-09-09T17:16:10;0.73;;;0.20;;
43523;SDS011;29120;52.006;6.020;2022-09-09T17:18:37;1.00;;;0.30;;
43523;SDS011;29120;52.006;6.020;2022-09-09T17:21:04;1.45;;;0.30;;
43523;SDS011;29120;52.006;6.020;2022-09-09T17:23:31;0.70;;;0.20;;
43523;SDS011;29120;52.006;6.020;2022-09-09T17:25:58;1.45;;;0.20;;
43523;SDS011;29120;52.006;6.020;2022-09-09T17:28:25;1.17;;;0.20;;
43523;SDS011;29120;52.006;6.020;2022-09-09T17:30:56;1.05;;;0.30;;